Time;durP1;ratioP1;P1;durP2;ratioP2;P2;SDS_P1;SDS_P2;PMS_P1;PMS_P2;Temp;Humidity;BMP_temperature;BMP_pressure;BME280_temperature;BME280_humidity;BME280_pressure;Samples;Min_cycle;Max_cycle;Signal;HPM_P1;HPM_P2
2022/11/05 00:09:35;;;;;;;10.77;1.38;;;;;;;;;;5081899;28;20047;-70
2022/11/05 00:17:33;;;;;;;5.60;1.20;;;;;;;;;;5082373;28;20045;-70
2022/11/05 00:20:00;;;;;;;10.02;2.60;;;;;;;;;;5065720;28;20086;-70
2022/11/05 00:25:15;;;;;;;11.40;1.27;;;;;;;;;;5083207;28;20176;-70
2022/11/05 00:27:46;;;;;;;9.75;1.25;;;;;;;;;;5059486;28;20708;-71
2022/11/05 00:30:15;;;;;;;8.07;1.45;;;;;;;;;;5062528;28;20064;-70
2022/11/05 00:32:43;;;;;;;5.70;1.23;;;;;;;;;;5081271;28;20136;-70
2022/11/05 00:35:10;;;;;;;8.75;1.40;;;;;;;;;;5063036;28;20053;-70
2022/11/05 00:37:37;;;;;;;13.25;1.30;;;;;;;;;;5078291;28;20047;-70
2022/11/05 00:40:05;;;;;;;8.48;1.17;;;;;;;;;;5063407;28;20139;-70
2022/11/05 00:45:19;;;;;;;12.35;2.67;;;;;;;;;;5065886;28;20051;-71
2022/11/05 00:50:31;;;;;;;7.90;2.10;;;;;;;;;;5082242;28;20052;-71
2022/11/05 00:52:59;;;;;;;21.40;2.63;;;;;;;;;;5082650;28;20143;-71
2022/11/05 00:55:32;;;;;;;5.47;1.00;;;;;;;;;;5057732;28;20078;-71
2022/11/05 00:58:01;;;;;;;11.05;1.13;;;;;;;;;;5080207;28;20047;-71
2022/11/05 01:00:29;;;;;;;7.80;1.00;;;;;;;;;;5078808;28;20056;-70
2022/11/05 01:03:00;;;;;;;7.65;1.42;;;;;;;;;;5059695;28;20052;-70
2022/11/05 01:05:27;;;;;;;7.40;0.77;;;;;;;;;;5077662;28;20051;-71
2022/11/05 01:07:55;;;;;;;12.63;1.33;;;;;;;;;;5061933;28;20055;-70
2022/11/05 01:10:22;;;;;;;6.25;1.15;;;;;;;;;;5066521;28;20060;-71
2022/11/05 01:12:50;;;;;;;6.47;1.10;;;;;;;;;;5081016;28;20048;-71
2022/11/05 01:15:19;;;;;;;9.65;1.13;;;;;;;;;;5083399;28;20482;-71
2022/11/05 01:17:46;;;;;;;8.50;1.75;;;;;;;;;;5067228;28;20055;-70
2022/11/05 01:20:13;;;;;;;16.50;1.55;;;;;;;;;;5066679;28;20060;-71
2022/11/05 01:22:41;;;;;;;10.02;1.38;;;;;;;;;;5084398;28;20048;-71
2022/11/05 01:25:09;;;;;;;7.55;1.30;;;;;;;;;;5088310;28;20044;-70
2022/11/05 01:27:36;;;;;;;9.25;1.55;;;;;;;;;;5059249;28;20068;-70
2022/11/05 01:30:04;;;;;;;11.32;0.98;;;;;;;;;;5085280;28;20102;-71
2022/11/05 01:32:33;;;;;;;9.73;1.02;;;;;;;;;;5066468;28;20048;-72
2022/11/05 01:35:00;;;;;;;7.22;1.10;;;;;;;;;;5069197;28;20059;-71
2022/11/05 01:37:27;;;;;;;5.45;1.10;;;;;;;;;;5067627;28;20414;-71
2022/11/05 01:39:55;;;;;;;8.30;1.00;;;;;;;;;;5087591;28;20491;-73
2022/11/05 01:42:24;;;;;;;8.48;1.30;;;;;;;;;;5066866;28;20063;-70
2022/11/05 01:45:09;;;;;;;16.85;1.63;;;;;;;;;;5084974;28;20048;-71
2022/11/05 01:47:43;;;;;;;4.82;1.10;;;;;;;;;;5086320;28;20036;-70
2022/11/05 01:50:19;;;;;;;5.15;1.02;;;;;;;;;;5085265;28;20583;-71
2022/11/05 01:52:46;;;;;;;10.73;1.27;;;;;;;;;;5084830;28;20534;-70
2022/11/05 01:55:14;;;;;;;9.73;1.30;;;;;;;;;;5060367;28;20056;-71
2022/11/05 01:57:41;;;;;;;8.43;1.10;;;;;;;;;;5060561;28;20048;-71
2022/11/05 02:00:09;;;;;;;6.00;0.90;;;;;;;;;;5065707;28;20052;-71
2022/11/05 02:02:37;;;;;;;6.50;1.10;;;;;;;;;;5078497;28;20464;-70
2022/11/05 02:05:07;;;;;;;11.23;1.92;;;;;;;;;;5064601;28;20057;-70
2022/11/05 02:07:34;;;;;;;8.55;1.05;;;;;;;;;;5066320;28;20048;-70
2022/11/05 02:10:02;;;;;;;15.80;1.40;;;;;;;;;;5083689;28;20061;-70
2022/11/05 02:12:30;;;;;;;9.02;1.20;;;;;;;;;;5062108;28;20134;-70
2022/11/05 02:14:58;;;;;;;10.10;0.88;;;;;;;;;;5086212;28;20052;-70
2022/11/05 02:17:31;;;;;;;5.05;0.65;;;;;;;;;;5084455;28;20040;-69
2022/11/05 02:20:14;;;;;;;8.50;1.33;;;;;;;;;;5087388;28;20457;-69
2022/11/05 02:22:48;;;;;;;6.13;1.27;;;;;;;;;;5063757;28;20537;-69
2022/11/05 02:25:28;;;;;;;4.50;1.13;;;;;;;;;;5082294;28;20052;-69
2022/11/05 02:28:06;;;;;;;5.43;0.95;;;;;;;;;;5074874;28;20059;-69
2022/11/05 02:30:39;;;;;;;6.43;0.70;;;;;;;;;;5078570;28;20066;-68
2022/11/05 02:33:06;;;;;;;;;;;;;;;;;;5086851;28;20052;-68
2022/11/05 02:35:49;;;;;;;4.70;0.80;;;;;;;;;;5068886;28;19924;-69
2022/11/05 02:38:25;;;;;;;6.95;0.68;;;;;;;;;;5080281;28;20137;-68
2022/11/05 02:40:59;;;;;;;3.70;0.68;;;;;;;;;;5069126;28;20056;-71
2022/11/05 02:43:29;;;;;;;8.82;0.95;;;;;;;;;;5081332;28;20071;-68
2022/11/05 02:46:00;;;;;;;8.68;0.95;;;;;;;;;;5078415;28;20474;-68
2022/11/05 02:48:30;;;;;;;3.78;0.68;;;;;;;;;;5085471;28;20052;-69
2022/11/05 02:51:00;;;;;;;4.97;0.77;;;;;;;;;;5083948;28;20060;-70
2022/11/05 02:53:33;;;;;;;6.90;1.17;;;;;;;;;;5085047;28;20527;-68
2022/11/05 02:56:02;;;;;;;8.55;0.90;;;;;;;;;;5081780;28;20079;-70
2022/11/05 02:58:29;;;;;;;4.93;1.00;;;;;;;;;;5080302;28;20052;-70
2022/11/05 03:00:59;;;;;;;7.20;0.82;;;;;;;;;;5081916;28;20533;-69
2022/11/05 03:03:31;;;;;;;6.97;1.27;;;;;;;;;;5081372;28;20051;-69
2022/11/05 03:06:09;;;;;;;2.30;0.75;;;;;;;;;;5084229;28;20055;-69
2022/11/05 03:08:42;;;;;;;7.57;0.90;;;;;;;;;;5079142;28;20059;-70
2022/11/05 03:11:10;;;;;;;;;;;;;;;;;;5079982;28;20063;-70
2022/11/05 03:13:40;;;;;;;7.03;1.17;;;;;;;;;;5068484;28;20003;-69
2022/11/05 03:16:12;;;;;;;4.63;0.93;;;;;;;;;;5082202;28;20501;-70
2022/11/05 03:18:41;;;;;;;6.50;1.02;;;;;;;;;;5085250;28;20044;-70
2022/11/05 03:21:12;;;;;;;9.60;1.33;;;;;;;;;;5084048;28;20058;-69
2022/11/05 03:23:43;;;;;;;9.07;1.30;;;;;;;;;;5079854;28;20046;-69
2022/11/05 03:26:16;;;;;;;5.90;1.45;;;;;;;;;;5062463;28;20051;-71
2022/11/05 03:28:46;;;;;;;8.82;1.30;;;;;;;;;;5084292;28;20048;-69
2022/11/05 03:31:16;;;;;;;5.70;1.10;;;;;;;;;;5080001;28;20066;-69
2022/11/05 03:33:44;;;;;;;4.85;1.15;;;;;;;;;;5084971;28;20376;-70
2022/11/05 03:36:15;;;;;;;4.10;0.85;;;;;;;;;;5084702;28;20056;-70
2022/11/05 03:38:44;;;;;;;6.82;1.20;;;;;;;;;;5082368;28;20098;-70
2022/11/05 03:41:14;;;;;;;6.93;0.98;;;;;;;;;;5084920;28;20055;-69
2022/11/05 03:43:43;;;;;;;9.45;1.20;;;;;;;;;;5073134;28;20040;-68
2022/11/05 03:46:12;;;;;;;7.60;1.20;;;;;;;;;;5075727;28;20155;-69
2022/11/05 03:48:44;;;;;;;3.83;0.80;;;;;;;;;;5082953;28;20059;-69
2022/11/05 03:51:13;;;;;;;5.80;1.00;;;;;;;;;;5063280;28;20499;-68
2022/11/05 03:53:43;;;;;;;6.00;1.00;;;;;;;;;;5086648;28;20052;-70
2022/11/05 03:56:12;;;;;;;6.45;0.90;;;;;;;;;;5084397;28;20043;-70
2022/11/05 03:58:42;;;;;;;7.80;1.77;;;;;;;;;;5067667;28;20631;-70
2022/11/05 04:01:09;;;;;;;5.60;1.00;;;;;;;;;;5080163;28;20051;-69
2022/11/05 04:03:36;;;;;;;8.55;1.00;;;;;;;;;;5073463;28;20048;-69
2022/11/05 04:14:19;;;;;;;5.28;1.00;;;;;;;;;;5061243;28;20086;-70
2022/11/05 04:25:02;;;;;;;6.40;1.20;;;;;;;;;;5085141;28;20050;-70
2022/11/05 04:27:30;;;;;;;6.10;1.00;;;;;;;;;;5085321;28;20051;-71
2022/11/05 04:32:42;;;;;;;6.38;1.42;;;;;;;;;;5085200;28;20051;-71
2022/11/05 04:35:09;;;;;;;5.72;1.30;;;;;;;;;;5067145;28;20059;-69
2022/11/05 04:37:37;;;;;;;7.57;1.35;;;;;;;;;;5083149;28;20044;-69
2022/11/05 04:40:05;;;;;;;4.57;1.20;;;;;;;;;;5080808;28;20048;-70
2022/11/05 04:42:32;;;;;;;12.02;1.73;;;;;;;;;;5084745;28;20453;-71
2022/11/05 04:44:59;;;;;;;3.35;1.15;;;;;;;;;;5083504;28;20052;-70
2022/11/05 04:47:27;;;;;;;6.38;1.80;;;;;;;;;;5085219;28;20062;-70
2022/11/05 04:49:54;;;;;;;4.68;1.55;;;;;;;;;;5083353;28;20137;-70
2022/11/05 04:52:21;;;;;;;9.40;1.27;;;;;;;;;;5085045;28;20048;-69
2022/11/05 04:54:50;;;;;;;6.82;1.35;;;;;;;;;;5082640;28;20123;-71
2022/11/05 04:57:17;;;;;;;5.10;1.48;;;;;;;;;;5080306;28;20052;-70
2022/11/05 04:59:44;;;;;;;5.00;1.75;;;;;;;;;;5080799;28;20056;-70
2022/11/05 05:02:11;;;;;;;8.55;1.52;;;;;;;;;;5084791;28;20106;-71
2022/11/05 05:04:38;;;;;;;3.92;1.50;;;;;;;;;;5084856;28;20516;-71
2022/11/05 05:07:06;;;;;;;6.47;1.52;;;;;;;;;;5081660;28;20044;-70
2022/11/05 05:09:33;;;;;;;7.85;1.20;;;;;;;;;;5083123;28;20040;-72
2022/11/05 05:12:02;;;;;;;6.32;1.98;;;;;;;;;;5083300;28;20040;-70
2022/11/05 05:14:29;;;;;;;5.90;1.35;;;;;;;;;;5081430;28;20109;-71
2022/11/05 05:16:56;;;;;;;5.22;1.10;;;;;;;;;;5079338;28;20537;-70
2022/11/05 05:19:24;;;;;;;2.95;1.48;;;;;;;;;;5062040;28;20048;-70
2022/11/05 05:21:50;;;;;;;7.28;1.27;;;;;;;;;;5080464;28;20102;-70
2022/11/05 05:24:18;;;;;;;6.03;1.42;;;;;;;;;;5057880;28;20079;-70
2022/11/05 05:26:47;;;;;;;10.55;1.70;;;;;;;;;;5080252;28;20056;-71
2022/11/05 05:29:15;;;;;;;11.35;1.95;;;;;;;;;;5081403;28;20494;-71
2022/11/05 05:31:43;;;;;;;3.42;1.13;;;;;;;;;;5064321;28;20056;-71
2022/11/05 05:34:11;;;;;;;3.80;1.00;;;;;;;;;;5082780;28;20409;-71
2022/11/05 05:36:38;;;;;;;8.73;1.30;;;;;;;;;;5064073;28;20176;-71
2022/11/05 05:39:06;;;;;;;3.83;1.08;;;;;;;;;;5080805;28;20040;-70
2022/11/05 05:41:33;;;;;;;7.93;1.67;;;;;;;;;;5066992;28;20060;-70
2022/11/05 05:44:01;;;;;;;6.07;1.00;;;;;;;;;;5064695;28;20060;-70
2022/11/05 05:46:29;;;;;;;4.82;0.90;;;;;;;;;;5078796;28;20138;-72
2022/11/05 05:48:57;;;;;;;6.95;1.10;;;;;;;;;;5064563;28;20052;-70
2022/11/05 05:51:24;;;;;;;7.10;1.00;;;;;;;;;;5086450;28;20062;-71
2022/11/05 05:53:52;;;;;;;4.63;0.98;;;;;;;;;;5084477;28;20822;-70
2022/11/05 05:56:19;;;;;;;7.35;0.77;;;;;;;;;;5066360;28;20048;-70
2022/11/05 05:58:47;;;;;;;6.28;1.38;;;;;;;;;;5084915;28;21198;-71
2022/11/05 06:01:16;;;;;;;7.13;1.42;;;;;;;;;;5069726;28;20056;-71
2022/11/05 06:03:45;;;;;;;5.15;1.00;;;;;;;;;;5083675;28;20048;-70
2022/11/05 06:06:13;;;;;;;7.82;1.17;;;;;;;;;;5085193;28;20406;-74
2022/11/05 06:08:40;;;;;;;4.32;0.90;;;;;;;;;;5064378;28;20052;-71
2022/11/05 06:11:08;;;;;;;5.63;0.70;;;;;;;;;;5069015;28;20478;-71
2022/11/05 06:13:36;;;;;;;7.05;0.90;;;;;;;;;;5065777;28;20052;-71
2022/11/05 06:16:04;;;;;;;3.13;1.10;;;;;;;;;;5079203;28;20147;-71
2022/11/05 06:18:32;;;;;;;9.48;1.27;;;;;;;;;;5078485;28;20032;-69
2022/11/05 06:21:02;;;;;;;4.63;1.00;;;;;;;;;;5084631;28;20604;-71
2022/11/05 06:23:30;;;;;;;3.95;1.10;;;;;;;;;;5080385;28;20048;-69
2022/11/05 06:26:00;;;;;;;3.38;1.00;;;;;;;;;;5056916;28;20101;-71
2022/11/05 06:28:28;;;;;;;4.40;1.10;;;;;;;;;;5079521;28;20084;-70
2022/11/05 06:30:55;;;;;;;4.75;1.40;;;;;;;;;;5078076;28;20151;-69
2022/11/05 06:33:22;;;;;;;4.03;1.50;;;;;;;;;;5080452;28;20628;-69
2022/11/05 06:35:50;;;;;;;5.18;1.40;;;;;;;;;;5082878;28;20481;-70
2022/11/05 06:38:18;;;;;;;5.22;1.20;;;;;;;;;;5079232;28;20486;-70
2022/11/05 06:40:46;;;;;;;6.25;1.70;;;;;;;;;;5059853;28;20048;-71
2022/11/05 06:43:13;;;;;;;3.25;1.17;;;;;;;;;;5077536;28;20051;-71
2022/11/05 06:45:40;;;;;;;3.97;1.17;;;;;;;;;;5082830;28;20409;-72
2022/11/05 06:48:07;;;;;;;4.43;1.42;;;;;;;;;;5054064;28;20051;-71
2022/11/05 06:50:35;;;;;;;3.88;1.20;;;;;;;;;;5078797;28;20056;-70
2022/11/05 06:53:03;;;;;;;5.32;1.70;;;;;;;;;;5074497;28;20084;-69
2022/11/05 06:55:32;;;;;;;4.53;1.40;;;;;;;;;;5078019;28;20051;-71
2022/11/05 06:57:59;;;;;;;4.43;1.38;;;;;;;;;;5077567;28;20056;-72
2022/11/05 07:00:26;;;;;;;8.60;2.03;;;;;;;;;;5060098;28;20067;-70
2022/11/05 07:02:55;;;;;;;7.57;1.50;;;;;;;;;;5075601;28;20048;-71
2022/11/05 07:05:23;;;;;;;9.95;1.63;;;;;;;;;;5078533;28;20048;-70
2022/11/05 07:07:50;;;;;;;11.35;3.03;;;;;;;;;;5063420;28;20107;-70
2022/11/05 07:10:18;;;;;;;4.50;2.10;;;;;;;;;;5072483;28;20036;-70
2022/11/05 07:12:47;;;;;;;7.97;2.05;;;;;;;;;;5075969;28;20044;-70
2022/11/05 07:15:14;;;;;;;7.97;2.30;;;;;;;;;;5075547;28;20056;-72
2022/11/05 07:17:41;;;;;;;6.80;2.67;;;;;;;;;;5056216;28;20056;-71
2022/11/05 07:20:10;;;;;;;6.05;2.75;;;;;;;;;;5078655;28;20506;-70
2022/11/05 07:22:37;;;;;;;8.82;2.67;;;;;;;;;;5078129;28;20410;-70
2022/11/05 07:25:05;;;;;;;6.78;2.90;;;;;;;;;;5077300;28;20049;-70
2022/11/05 07:27:32;;;;;;;4.93;2.30;;;;;;;;;;5077723;28;20055;-70
2022/11/05 07:30:00;;;;;;;6.68;2.60;;;;;;;;;;5083472;28;20055;-71
2022/11/05 07:32:28;;;;;;;21.52;3.20;;;;;;;;;;5078276;28;20071;-70
2022/11/05 07:34:55;;;;;;;12.27;3.30;;;;;;;;;;5082582;28;20044;-69
2022/11/05 07:37:22;;;;;;;5.75;2.83;;;;;;;;;;5080137;28;20044;-70
2022/11/05 07:39:49;;;;;;;7.32;2.65;;;;;;;;;;5080287;28;20045;-71
2022/11/05 07:42:16;;;;;;;9.27;3.13;;;;;;;;;;5082483;28;20063;-70
2022/11/05 07:44:44;;;;;;;12.40;3.55;;;;;;;;;;5084936;28;20606;-70
2022/11/05 07:47:12;;;;;;;10.20;3.10;;;;;;;;;;5078489;28;20062;-72
2022/11/05 07:49:39;;;;;;;5.30;2.30;;;;;;;;;;5082075;28;20059;-72
2022/11/05 07:52:07;;;;;;;5.57;2.90;;;;;;;;;;5085772;28;20155;-69
2022/11/05 07:54:34;;;;;;;8.40;2.78;;;;;;;;;;5085294;28;20372;-70
2022/11/05 07:57:01;;;;;;;9.90;2.47;;;;;;;;;;5083464;28;20060;-70
2022/11/05 07:59:28;;;;;;;8.07;2.63;;;;;;;;;;5083133;28;20582;-72
2022/11/05 08:01:56;;;;;;;13.63;2.40;;;;;;;;;;5064392;28;20048;-72
2022/11/05 08:04:24;;;;;;;9.07;3.38;;;;;;;;;;5064790;28;20044;-72
2022/11/05 08:06:51;;;;;;;6.25;2.10;;;;;;;;;;5084092;28;20051;-71
2022/11/05 08:09:19;;;;;;;9.10;2.40;;;;;;;;;;5081572;28;20058;-71
2022/11/05 08:11:46;;;;;;;10.73;2.67;;;;;;;;;;5068252;28;20430;-69
2022/11/05 08:14:13;;;;;;;11.32;2.40;;;;;;;;;;5084677;28;20055;-70
2022/11/05 08:16:40;;;;;;;5.53;1.70;;;;;;;;;;5081457;28;20075;-70
2022/11/05 08:19:08;;;;;;;5.30;1.52;;;;;;;;;;5078208;28;20048;-70
2022/11/05 08:21:36;;;;;;;3.53;1.00;;;;;;;;;;5082816;28;20466;-70
2022/11/05 08:24:04;;;;;;;6.93;0.98;;;;;;;;;;5083752;28;20048;-70
2022/11/05 08:26:31;;;;;;;4.57;0.95;;;;;;;;;;5081977;28;20048;-70
2022/11/05 08:28:59;;;;;;;6.35;1.30;;;;;;;;;;5064920;28;20123;-71
2022/11/05 08:31:27;;;;;;;6.25;1.55;;;;;;;;;;5079171;28;20072;-70
2022/11/05 08:33:54;;;;;;;7.22;2.30;;;;;;;;;;5078322;28;20058;-70
2022/11/05 08:36:22;;;;;;;11.70;2.50;;;;;;;;;;5080478;28;20413;-69
2022/11/05 08:38:50;;;;;;;7.90;2.78;;;;;;;;;;5083072;28;20240;-70
2022/11/05 08:41:17;;;;;;;9.15;2.63;;;;;;;;;;5067267;28;20047;-71
2022/11/05 08:43:45;;;;;;;10.75;3.35;;;;;;;;;;5075063;28;20048;-70
2022/11/05 08:46:12;;;;;;;12.02;3.90;;;;;;;;;;5077987;28;20062;-72
2022/11/05 08:48:39;;;;;;;9.48;3.67;;;;;;;;;;5076139;28;20053;-70
2022/11/05 08:51:06;;;;;;;7.65;3.55;;;;;;;;;;5082195;28;20066;-71
2022/11/05 08:53:34;;;;;;;10.88;3.85;;;;;;;;;;5080499;28;20048;-70
2022/11/05 08:56:02;;;;;;;12.00;3.95;;;;;;;;;;5085268;28;20048;-71
2022/11/05 08:58:29;;;;;;;11.75;3.47;;;;;;;;;;5064763;28;20060;-69
2022/11/05 09:00:57;;;;;;;9.15;3.42;;;;;;;;;;5081159;28;20055;-71
2022/11/05 09:03:24;;;;;;;12.60;3.40;;;;;;;;;;5075325;28;20052;-70
2022/11/05 09:05:51;;;;;;;14.88;3.55;;;;;;;;;;5063824;28;20518;-70
2022/11/05 09:08:19;;;;;;;8.60;2.78;;;;;;;;;;5078480;28;20048;-71
2022/11/05 09:10:46;;;;;;;14.05;2.90;;;;;;;;;;5084501;28;20051;-70
2022/11/05 09:13:15;;;;;;;6.63;2.65;;;;;;;;;;5083824;28;20059;-70
2022/11/05 09:15:42;;;;;;;7.13;2.95;;;;;;;;;;5084101;28;20170;-70
2022/11/05 09:18:12;;;;;;;15.85;2.80;;;;;;;;;;5080423;28;21259;-71
2022/11/05 09:20:39;;;;;;;10.57;3.38;;;;;;;;;;5080608;28;20048;-71
2022/11/05 09:23:07;;;;;;;11.95;2.85;;;;;;;;;;5069900;28;20498;-70
2022/11/05 09:25:34;;;;;;;8.77;2.70;;;;;;;;;;5064405;28;20044;-70
2022/11/05 09:28:11;;;;;;;12.30;3.28;;;;;;;;;;5087720;28;20758;-71
2022/11/05 09:30:42;;;;;;;11.18;3.10;;;;;;;;;;5064646;28;20523;-71
2022/11/05 09:33:09;;;;;;;12.20;3.60;;;;;;;;;;5060390;28;20269;-71
2022/11/05 09:35:38;;;;;;;10.65;3.53;;;;;;;;;;5065429;28;20059;-71
2022/11/05 09:38:05;;;;;;;10.77;3.40;;;;;;;;;;5066321;28;20048;-70
2022/11/05 09:40:34;;;;;;;11.48;3.42;;;;;;;;;;5063425;28;20045;-71
2022/11/05 09:43:01;;;;;;;11.20;3.30;;;;;;;;;;5067060;28;20063;-71
2022/11/05 09:45:29;;;;;;;10.23;2.53;;;;;;;;;;5063155;28;20069;-70
2022/11/05 09:48:00;;;;;;;5.97;1.65;;;;;;;;;;5064498;28;20148;-71
2022/11/05 09:50:31;;;;;;;7.22;2.15;;;;;;;;;;5060149;28;20491;-71
2022/11/05 09:52:58;;;;;;;14.77;2.40;;;;;;;;;;5058603;28;20048;-71
2022/11/05 09:55:28;;;;;;;13.35;2.47;;;;;;;;;;5058143;28;20048;-71
2022/11/05 09:57:57;;;;;;;8.10;2.40;;;;;;;;;;5061378;28;20045;-72
2022/11/05 10:00:24;;;;;;;6.13;1.58;;;;;;;;;;5059933;28;20044;-71
2022/11/05 10:02:54;;;;;;;11.40;2.10;;;;;;;;;;5063769;28;20083;-73
2022/11/05 10:05:23;;;;;;;9.05;2.15;;;;;;;;;;5059443;28;20045;-71
2022/11/05 10:07:52;;;;;;;12.48;2.13;;;;;;;;;;5053898;28;20057;-71
2022/11/05 10:10:27;;;;;;;9.20;1.95;;;;;;;;;;5064427;28;20047;-71
2022/11/05 10:12:55;;;;;;;10.10;1.80;;;;;;;;;;5066502;28;20072;-71
2022/11/05 10:15:25;;;;;;;9.73;2.17;;;;;;;;;;5065474;28;20059;-72
2022/11/05 10:18:08;;;;;;;6.95;1.60;;;;;;;;;;5062977;28;20049;-71
2022/11/05 10:20:37;;;;;;;8.95;1.80;;;;;;;;;;5055708;28;20053;-71
2022/11/05 10:23:10;;;;;;;8.90;1.80;;;;;;;;;;5066936;28;20061;-71
2022/11/05 10:25:40;;;;;;;6.77;1.80;;;;;;;;;;5066160;28;20055;-71
2022/11/05 10:28:07;;;;;;;9.65;1.65;;;;;;;;;;5063342;28;20353;-71
2022/11/05 10:30:35;;;;;;;6.47;1.52;;;;;;;;;;5064859;28;20601;-71
2022/11/05 10:33:03;;;;;;;11.27;3.00;;;;;;;;;;5070269;28;20163;-72
2022/11/05 10:35:32;;;;;;;10.57;1.80;;;;;;;;;;5063905;28;20056;-72
2022/11/05 10:38:00;;;;;;;8.50;1.60;;;;;;;;;;5064370;28;20586;-72
2022/11/05 10:40:32;;;;;;;7.78;2.00;;;;;;;;;;5060029;28;20438;-71
2022/11/05 10:43:04;;;;;;;5.28;1.58;;;;;;;;;;5064575;28;20413;-72
2022/11/05 10:45:35;;;;;;;8.00;1.90;;;;;;;;;;5069333;28;20494;-71
2022/11/05 10:48:07;;;;;;;9.13;1.60;;;;;;;;;;5082088;28;20052;-71
2022/11/05 10:50:34;;;;;;;14.18;1.60;;;;;;;;;;5072879;28;20053;-71
2022/11/05 10:53:06;;;;;;;4.07;1.30;;;;;;;;;;5061844;28;20057;-71
2022/11/05 10:55:35;;;;;;;7.15;1.45;;;;;;;;;;5075870;28;20040;-71
2022/11/05 10:58:10;;;;;;;10.45;1.50;;;;;;;;;;5083701;28;20486;-71
2022/11/05 11:00:37;;;;;;;7.93;1.40;;;;;;;;;;5067920;28;21100;-71
2022/11/05 11:03:06;;;;;;;6.45;1.77;;;;;;;;;;5068203;28;20056;-72
2022/11/05 11:05:34;;;;;;;7.75;1.75;;;;;;;;;;5059628;28;20044;-71
2022/11/05 11:08:04;;;;;;;9.70;1.77;;;;;;;;;;5072793;28;20045;-71
2022/11/05 11:10:41;;;;;;;6.25;1.40;;;;;;;;;;5058778;28;20381;-71
2022/11/05 11:13:18;;;;;;;8.20;1.80;;;;;;;;;;5063317;28;20075;-71
2022/11/05 11:15:45;;;;;;;6.60;1.55;;;;;;;;;;5082262;28;20509;-74
2022/11/05 11:18:33;;;;;;;7.30;1.65;;;;;;;;;;5067069;28;20055;-72
2022/11/05 11:21:12;;;;;;;4.68;1.30;;;;;;;;;;5058053;28;20382;-72
2022/11/05 11:23:41;;;;;;;7.20;1.88;;;;;;;;;;5084403;28;20040;-71
2022/11/05 11:26:09;;;;;;;8.20;1.58;;;;;;;;;;5086432;28;20071;-72
2022/11/05 11:28:38;;;;;;;4.65;1.80;;;;;;;;;;5066695;28;20597;-72
2022/11/05 11:31:06;;;;;;;5.78;1.42;;;;;;;;;;5061766;28;20071;-71
2022/11/05 11:33:34;;;;;;;7.47;1.27;;;;;;;;;;5059858;28;20550;-72
2022/11/05 11:36:01;;;;;;;6.43;1.25;;;;;;;;;;5067818;28;20079;-71
2022/11/05 11:38:30;;;;;;;5.95;1.40;;;;;;;;;;5064977;28;20063;-72
2022/11/05 11:41:04;;;;;;;6.47;1.52;;;;;;;;;;5084682;28;20040;-71
2022/11/05 11:43:32;;;;;;;6.82;1.70;;;;;;;;;;5071687;28;20109;-71
2022/11/05 11:45:59;;;;;;;7.13;1.80;;;;;;;;;;5062720;28;20056;-71
2022/11/05 11:48:29;;;;;;;6.45;1.75;;;;;;;;;;5077993;28;20052;-71
2022/11/05 11:50:57;;;;;;;3.45;1.08;;;;;;;;;;5083168;28;20129;-72
2022/11/05 11:53:29;;;;;;;4.55;1.15;;;;;;;;;;5063040;28;20044;-72
2022/11/05 11:56:01;;;;;;;3.28;0.85;;;;;;;;;;5067719;28;20055;-71
2022/11/05 11:58:42;;;;;;;3.00;0.70;;;;;;;;;;5083283;28;20058;-73
2022/11/05 12:01:18;;;;;;;5.35;1.00;;;;;;;;;;5059056;28;20414;-73
2022/11/05 12:03:48;;;;;;;6.07;0.88;;;;;;;;;;5069400;28;20059;-72
2022/11/05 12:06:19;;;;;;;7.00;1.00;;;;;;;;;;5062958;28;20053;-71
2022/11/05 12:08:51;;;;;;;8.93;2.55;;;;;;;;;;5069175;28;20055;-72
2022/11/05 12:11:21;;;;;;;8.70;2.20;;;;;;;;;;5063410;28;20044;-72
2022/11/05 12:14:09;;;;;;;7.72;2.58;;;;;;;;;;5059803;28;20494;-71
2022/11/05 12:16:51;;;;;;;7.40;1.10;;;;;;;;;;5063495;28;20770;-71
2022/11/05 12:19:24;;;;;;;7.13;1.83;;;;;;;;;;5067522;28;20071;-71
2022/11/05 12:21:56;;;;;;;6.03;1.42;;;;;;;;;;5065345;28;20147;-71
2022/11/05 12:24:40;;;;;;;6.10;1.30;;;;;;;;;;5084097;28;20058;-72
2022/11/05 12:27:14;;;;;;;8.52;1.58;;;;;;;;;;5062907;28;20415;-74
2022/11/05 12:29:48;;;;;;;3.40;1.17;;;;;;;;;;5060093;28;20590;-71
2022/11/05 12:32:33;;;;;;;6.72;1.20;;;;;;;;;;5069040;28;20059;-71
2022/11/05 12:35:05;;;;;;;7.45;1.40;;;;;;;;;;5064042;28;20062;-73
2022/11/05 12:37:37;;;;;;;4.57;1.20;;;;;;;;;;5062603;28;20471;-71
2022/11/05 12:40:13;;;;;;;8.25;2.10;;;;;;;;;;5084427;28;20056;-71
2022/11/05 12:42:46;;;;;;;6.82;1.50;;;;;;;;;;5069919;28;20044;-73
2022/11/05 12:45:20;;;;;;;8.23;2.15;;;;;;;;;;5066190;28;20117;-72
2022/11/05 12:47:55;;;;;;;6.10;1.60;;;;;;;;;;5082379;28;20055;-71
2022/11/05 12:50:25;;;;;;;4.43;1.30;;;;;;;;;;5060380;28;20052;-71
2022/11/05 12:53:04;;;;;;;5.50;1.55;;;;;;;;;;5081696;28;20044;-72
2022/11/05 12:55:35;;;;;;;7.60;2.25;;;;;;;;;;5060746;28;20326;-71
2022/11/05 12:58:05;;;;;;;5.07;1.85;;;;;;;;;;5068564;28;20048;-71
2022/11/05 13:00:33;;;;;;;6.97;2.05;;;;;;;;;;5082555;28;20056;-72
2022/11/05 13:03:07;;;;;;;11.52;2.65;;;;;;;;;;5070334;28;20133;-71
2022/11/05 13:05:36;;;;;;;10.00;2.60;;;;;;;;;;5087662;28;20044;-72
2022/11/05 13:08:07;;;;;;;14.45;2.42;;;;;;;;;;5070799;28;20467;-74
2022/11/05 13:10:36;;;;;;;9.73;2.80;;;;;;;;;;5065701;28;20056;-72
2022/11/05 13:13:07;;;;;;;12.32;2.75;;;;;;;;;;5085888;28;20058;-72
2022/11/05 13:15:38;;;;;;;11.82;3.00;;;;;;;;;;5068226;28;20486;-72
2022/11/05 13:18:07;;;;;;;8.05;2.30;;;;;;;;;;5068677;28;20064;-72
2022/11/05 13:20:36;;;;;;;10.18;3.08;;;;;;;;;;5066228;28;20052;-71
2022/11/05 13:23:06;;;;;;;9.93;2.70;;;;;;;;;;5085540;28;20051;-72
2022/11/05 13:25:36;;;;;;;8.63;2.58;;;;;;;;;;5065705;28;20112;-72
2022/11/05 13:28:07;;;;;;;9.20;2.85;;;;;;;;;;5071093;28;20062;-72
2022/11/05 13:30:37;;;;;;;12.52;2.60;;;;;;;;;;5067747;28;20040;-72
2022/11/05 13:33:06;;;;;;;8.18;2.45;;;;;;;;;;5066284;28;20053;-72
2022/11/05 13:35:37;;;;;;;8.13;2.58;;;;;;;;;;5044198;28;20063;-72
2022/11/05 13:41:00;;;;;;;8.75;2.53;;;;;;;;;;5044889;28;20041;-71
2022/11/05 13:43:34;;;;;;;6.78;2.35;;;;;;;;;;5045216;28;20049;-72
2022/11/05 13:46:11;;;;;;;7.88;2.33;;;;;;;;;;5057352;28;20586;-71
2022/11/05 13:48:53;;;;;;;10.02;2.60;;;;;;;;;;5046392;28;20060;-72
2022/11/05 13:51:35;;;;;;;9.90;2.85;;;;;;;;;;5033920;28;20053;-71
2022/11/05 13:54:23;;;;;;;10.65;2.88;;;;;;;;;;5047203;28;20452;-71
2022/11/05 13:56:56;;;;;;;11.15;2.88;;;;;;;;;;5039945;28;20049;-71
2022/11/05 13:59:38;;;;;;;11.80;2.85;;;;;;;;;;5047477;28;20056;-72
2022/11/05 14:02:12;;;;;;;9.38;3.10;;;;;;;;;;5043624;28;20045;-71
2022/11/05 14:04:41;;;;;;;9.35;3.50;;;;;;;;;;5044563;28;20594;-71
2022/11/05 14:07:09;;;;;;;12.07;3.13;;;;;;;;;;5044518;28;20053;-71
2022/11/05 14:09:37;;;;;;;9.88;3.30;;;;;;;;;;5045950;28;20058;-71
2022/11/05 14:12:05;;;;;;;7.10;2.85;;;;;;;;;;5039758;28;20056;-72
2022/11/05 14:14:35;;;;;;;10.88;3.10;;;;;;;;;;5044096;28;20068;-71
2022/11/05 14:17:15;;;;;;;9.15;2.63;;;;;;;;;;5037943;28;20052;-72
2022/11/05 14:20:06;;;;;;;9.15;2.60;;;;;;;;;;5045048;28;20844;-72
2022/11/05 14:22:38;;;;;;;10.70;2.90;;;;;;;;;;5054724;28;20132;-72
2022/11/05 14:25:25;;;;;;;9.57;2.60;;;;;;;;;;5042942;28;20056;-72
2022/11/05 14:27:53;;;;;;;6.53;2.78;;;;;;;;;;5040587;28;20045;-70
2022/11/05 14:30:39;;;;;;;7.43;2.40;;;;;;;;;;5043826;28;20061;-71
2022/11/05 14:33:14;;;;;;;10.73;3.15;;;;;;;;;;5039109;28;20136;-71
2022/11/05 14:35:42;;;;;;;14.50;3.20;;;;;;;;;;5045528;28;20057;-71
2022/11/05 14:38:19;;;;;;;7.57;2.63;;;;;;;;;;5045843;28;20053;-71
2022/11/05 14:40:46;;;;;;;10.75;2.80;;;;;;;;;;5037378;28;20412;-72
2022/11/05 14:43:19;;;;;;;8.77;2.92;;;;;;;;;;5043673;28;20053;-72
2022/11/05 14:45:53;;;;;;;10.93;2.60;;;;;;;;;;5043527;28;20057;-71
2022/11/05 14:48:36;;;;;;;10.27;2.72;;;;;;;;;;5042409;28;20060;-71
2022/11/05 14:51:10;;;;;;;12.77;2.97;;;;;;;;;;5044442;28;20045;-71
2022/11/05 14:53:39;;;;;;;6.93;2.40;;;;;;;;;;5036926;28;20056;-71
2022/11/05 14:56:10;;;;;;;7.50;2.30;;;;;;;;;;5045365;28;20068;-72
2022/11/05 14:58:37;;;;;;;6.93;2.30;;;;;;;;;;5041536;28;20053;-71
2022/11/05 15:01:06;;;;;;;15.57;2.60;;;;;;;;;;5044720;28;20040;-71
2022/11/05 15:03:36;;;;;;;10.32;2.35;;;;;;;;;;5039900;28;20059;-72
2022/11/05 15:06:05;;;;;;;11.27;2.33;;;;;;;;;;5046282;28;20053;-72
2022/11/05 15:08:36;;;;;;;6.55;2.22;;;;;;;;;;5045543;28;20052;-71
2022/11/05 15:11:09;;;;;;;12.45;2.47;;;;;;;;;;5045732;28;20071;-72
2022/11/05 15:13:39;;;;;;;9.43;2.42;;;;;;;;;;5042915;28;20049;-71
2022/11/05 15:16:07;;;;;;;10.32;2.60;;;;;;;;;;5044718;28;20139;-71
2022/11/05 15:18:38;;;;;;;5.95;2.35;;;;;;;;;;5045200;28;20067;-71
2022/11/05 15:21:07;;;;;;;6.80;2.10;;;;;;;;;;5043952;28;20060;-71
2022/11/05 15:23:39;;;;;;;9.15;2.60;;;;;;;;;;5042196;28;20487;-71
2022/11/05 15:26:09;;;;;;;10.50;2.53;;;;;;;;;;5040856;28;20057;-72
2022/11/05 15:28:37;;;;;;;10.68;3.05;;;;;;;;;;5042211;28;20049;-71
2022/11/05 15:31:06;;;;;;;8.90;2.40;;;;;;;;;;5041835;28;20040;-71
2022/11/05 15:33:33;;;;;;;11.07;2.17;;;;;;;;;;5043359;28;20064;-72
2022/11/05 15:36:12;;;;;;;13.35;2.78;;;;;;;;;;5045503;28;20052;-71
2022/11/05 15:38:41;;;;;;;6.00;2.28;;;;;;;;;;5037464;28;20451;-72
2022/11/05 15:41:15;;;;;;;8.75;1.80;;;;;;;;;;5044916;28;20057;-72